sensor_id;sensor_type;location;lat;lon;timestamp;pressure;altitude;pressure_sealevel;temperature;humidity
9129;BME280;4599;50.906;6.786;2023-04-19T00:02:30;17271.75;;;-142.83;54.05
9129;BME280;4599;50.906;6.786;2023-04-19T00:06:32;17275.84;;;-142.83;54.26
9129;BME280;4599;50.906;6.786;2023-04-19T00:10:33;17241.06;;;-142.83;54.82
9129;BME280;4599;50.906;6.786;2023-04-19T00:14:35;17294.25;;;-142.83;53.90
9129;BME280;4599;50.906;6.786;2023-04-19T00:18:38;17277.88;;;-142.83;54.85
9129;BME280;4599;50.906;6.786;2023-04-19T00:22:39;17230.84;;;-142.83;55.17
9129;BME280;4599;50.906;6.786;2023-04-19T00:26:41;17273.78;;;-142.83;55.09
9129;BME280;4599;50.906;6.786;2023-04-19T00:30:42;17267.66;;;-142.83;55.36
9129;BME280;4599;50.906;6.786;2023-04-19T00:34:45;17269.69;;;-142.83;55.58
9129;BME280;4599;50.906;6.786;2023-04-19T00:38:47;17286.06;;;-142.83;55.24
9129;BME280;4599;50.906;6.786;2023-04-19T00:42:48;17249.25;;;-142.83;55.60
9129;BME280;4599;50.906;6.786;2023-04-19T00:46:50;17241.06;;;-142.83;56.10
9129;BME280;4599;50.906;6.786;2023-04-19T00:50:53;17216.53;;;-142.83;55.96
9129;BME280;4599;50.906;6.786;2023-04-19T00:54:57;17220.63;;;-142.83;56.73
9129;BME280;4599;50.906;6.786;2023-04-19T00:58:59;17234.94;;;-142.83;56.48
9129;BME280;4599;50.906;6.786;2023-04-19T01:03:00;17196.06;;;-142.83;56.56
9129;BME280;4599;50.906;6.786;2023-04-19T01:07:03;17232.88;;;-142.83;56.93
9129;BME280;4599;50.906;6.786;2023-04-19T01:11:05;17214.47;;;-142.83;57.16
9129;BME280;4599;50.906;6.786;2023-04-19T01:15:08;17232.88;;;-142.83;56.54
9129;BME280;4599;50.906;6.786;2023-04-19T01:19:09;17232.88;;;-142.83;57.12
9129;BME280;4599;50.906;6.786;2023-04-19T01:23:12;17210.38;;;-142.83;57.09
9129;BME280;4599;50.906;6.786;2023-04-19T01:27:14;17220.63;;;-142.83;57.38
9129;BME280;4599;50.906;6.786;2023-04-19T01:31:15;17200.16;;;-142.83;57.89
9129;BME280;4599;50.906;6.786;2023-04-19T01:35:18;17214.47;;;-142.83;58.02
9129;BME280;4599;50.906;6.786;2023-04-19T01:39:21;17216.53;;;-142.83;57.80
9129;BME280;4599;50.906;6.786;2023-04-19T01:43:23;17187.88;;;-142.83;57.41
9129;BME280;4599;50.906;6.786;2023-04-19T01:47:24;17181.75;;;-142.83;58.67
9129;BME280;4599;50.906;6.786;2023-04-19T01:51:26;17183.81;;;-142.83;59.70
9129;BME280;4599;50.906;6.786;2023-04-19T01:55:29;17144.94;;;-142.83;59.48
9129;BME280;4599;50.906;6.786;2023-04-19T01:59:30;17157.22;;;-142.83;60.31
9129;BME280;4599;50.906;6.786;2023-04-19T02:03:32;17157.22;;;-142.83;60.58
9129;BME280;4599;50.906;6.786;2023-04-19T02:07:33;17151.06;;;-142.83;61.98
9129;BME280;4599;50.906;6.786;2023-04-19T02:11:36;17122.44;;;-142.83;61.81
9129;BME280;4599;50.906;6.786;2023-04-19T02:15:39;17161.31;;;-142.83;61.92
9129;BME280;4599;50.906;6.786;2023-04-19T02:19:41;17114.25;;;-142.83;62.27
9129;BME280;4599;50.906;6.786;2023-04-19T02:23:42;17149.03;;;-142.83;61.91
9129;BME280;4599;50.906;6.786;2023-04-19T02:27:45;17116.31;;;-142.83;62.56
9129;BME280;4599;50.906;6.786;2023-04-19T02:31:46;17089.72;;;-142.83;63.73
9129;BME280;4599;50.906;6.786;2023-04-19T02:35:48;17118.34;;;-142.83;64.25
9129;BME280;4599;50.906;6.786;2023-04-19T02:39:49;17104.03;;;-142.83;64.21
9129;BME280;4599;50.906;6.786;2023-04-19T02:43:55;17122.44;;;-142.83;63.99
9129;BME280;4599;50.906;6.786;2023-04-19T02:47:56;17097.91;;;-142.83;64.19
9129;BME280;4599;50.906;6.786;2023-04-19T02:51:58;17114.25;;;-142.83;63.68
9129;BME280;4599;50.906;6.786;2023-04-19T02:55:59;17122.44;;;-142.83;64.39
9129;BME280;4599;50.906;6.786;2023-04-19T03:00:03;17122.44;;;-142.83;63.65
9129;BME280;4599;50.906;6.786;2023-04-19T03:04:04;17102.00;;;-142.83;63.73
9129;BME280;4599;50.906;6.786;2023-04-19T03:08:06;17114.25;;;-142.83;64.37
9129;BME280;4599;50.906;6.786;2023-04-19T03:12:08;17114.25;;;-142.83;63.70
9129;BME280;4599;50.906;6.786;2023-04-19T03:16:11;17126.53;;;-142.83;63.14
9129;BME280;4599;50.906;6.786;2023-04-19T03:20:13;17142.91;;;-142.83;62.70
9129;BME280;4599;50.906;6.786;2023-04-19T03:24:14;17126.53;;;-142.83;64.11
9129;BME280;4599;50.906;6.786;2023-04-19T03:28:16;17136.75;;;-142.83;64.35
9129;BME280;4599;50.906;6.786;2023-04-19T03:32:19;17102.00;;;-142.83;64.82
9129;BME280;4599;50.906;6.786;2023-04-19T03:36:20;17112.22;;;-142.83;64.42
9129;BME280;4599;50.906;6.786;2023-04-19T03:40:22;17118.34;;;-142.83;64.99
9129;BME280;4599;50.906;6.786;2023-04-19T03:44:23;17106.06;;;-142.83;65.86
9129;BME280;4599;50.906;6.786;2023-04-19T03:48:26;17083.56;;;-142.83;65.04
9129;BME280;4599;50.906;6.786;2023-04-19T03:52:27;17081.53;;;-142.83;65.38
9129;BME280;4599;50.906;6.786;2023-04-19T03:56:29;17079.50;;;-142.83;66.08
9129;BME280;4599;50.906;6.786;2023-04-19T04:00:30;17040.63;;;-142.83;67.08
9129;BME280;4599;50.906;6.786;2023-04-19T04:04:33;17067.22;;;-142.83;67.27
9129;BME280;4599;50.906;6.786;2023-04-19T04:08:36;17075.41;;;-142.83;67.40
9129;BME280;4599;50.906;6.786;2023-04-19T04:12:37;17083.56;;;-142.83;67.62
9129;BME280;4599;50.906;6.786;2023-04-19T04:16:39;17073.34;;;-142.83;67.25
9129;BME280;4599;50.906;6.786;2023-04-19T04:20:42;17099.94;;;-142.83;67.13
9129;BME280;4599;50.906;6.786;2023-04-19T04:24:43;17065.16;;;-142.83;66.83
9129;BME280;4599;50.906;6.786;2023-04-19T04:28:45;17063.13;;;-142.83;66.63
9129;BME280;4599;50.906;6.786;2023-04-19T04:32:46;17102.00;;;-142.83;66.20
9129;BME280;4599;50.906;6.786;2023-04-19T04:36:49;17073.34;;;-142.83;66.01
9129;BME280;4599;50.906;6.786;2023-04-19T04:40:51;17120.41;;;-142.83;66.24
9129;BME280;4599;50.906;6.786;2023-04-19T04:44:52;17118.34;;;-142.83;65.58
9129;BME280;4599;50.906;6.786;2023-04-19T04:48:54;17079.50;;;-142.83;65.82
9129;BME280;4599;50.906;6.786;2023-04-19T04:52:57;17124.47;;;-142.83;65.53
9129;BME280;4599;50.906;6.786;2023-04-19T04:56:59;17087.66;;;-142.83;65.73
9129;BME280;4599;50.906;6.786;2023-04-19T05:01:00;17108.13;;;-142.83;65.23
9129;BME280;4599;50.906;6.786;2023-04-19T05:05:02;17110.16;;;-142.83;65.44
9129;BME280;4599;50.906;6.786;2023-04-19T05:09:05;17079.50;;;-142.83;65.54
9129;BME280;4599;50.906;6.786;2023-04-19T05:13:06;17095.84;;;-142.83;65.98
9129;BME280;4599;50.906;6.786;2023-04-19T05:17:08;17093.81;;;-142.83;65.06
9129;BME280;4599;50.906;6.786;2023-04-19T05:21:09;17120.41;;;-142.83;66.17
9129;BME280;4599;50.906;6.786;2023-04-19T05:25:12;17097.91;;;-142.83;66.01
9129;BME280;4599;50.906;6.786;2023-04-19T05:29:13;17097.91;;;-142.83;64.81
9129;BME280;4599;50.906;6.786;2023-04-19T05:33:15;17118.34;;;-142.83;64.66
9129;BME280;4599;50.906;6.786;2023-04-19T05:37:16;17093.81;;;-142.83;65.44
9129;BME280;4599;50.906;6.786;2023-04-19T05:41:19;17106.06;;;-142.83;65.65
9129;BME280;4599;50.906;6.786;2023-04-19T05:45:21;17122.44;;;-142.83;65.60
9129;BME280;4599;50.906;6.786;2023-04-19T05:49:22;17099.94;;;-142.83;65.65
9129;BME280;4599;50.906;6.786;2023-04-19T05:53:24;17114.25;;;-142.83;65.13
9129;BME280;4599;50.906;6.786;2023-04-19T05:57:27;17077.44;;;-142.83;65.84
9129;BME280;4599;50.906;6.786;2023-04-19T06:01:29;17097.91;;;-142.83;65.06
9129;BME280;4599;50.906;6.786;2023-04-19T06:05:30;17108.13;;;-142.83;64.56
9129;BME280;4599;50.906;6.786;2023-04-19T06:09:32;17140.84;;;-142.83;64.30
9129;BME280;4599;50.906;6.786;2023-04-19T06:13:35;17104.03;;;-142.83;64.51
9129;BME280;4599;50.906;6.786;2023-04-19T06:17:36;17151.06;;;-142.83;63.80
9129;BME280;4599;50.906;6.786;2023-04-19T06:21:38;17130.63;;;-142.83;65.09
9129;BME280;4599;50.906;6.786;2023-04-19T06:25:39;17126.53;;;-142.83;65.04
9129;BME280;4599;50.906;6.786;2023-04-19T06:29:42;17126.53;;;-142.83;64.46
9129;BME280;4599;50.906;6.786;2023-04-19T06:33:44;17138.81;;;-142.83;63.43
9129;BME280;4599;50.906;6.786;2023-04-19T06:37:45;17134.72;;;-142.83;61.97
9129;BME280;4599;50.906;6.786;2023-04-19T06:41:47;17146.97;;;-142.83;61.68
9129;BME280;4599;50.906;6.786;2023-04-19T06:45:56;17167.44;;;-142.83;60.95
9129;BME280;4599;50.906;6.786;2023-04-19T06:49:58;17196.06;;;-142.83;60.96
9129;BME280;4599;50.906;6.786;2023-04-19T06:54:00;17187.88;;;-142.83;60.34
9129;BME280;4599;50.906;6.786;2023-04-19T06:58:02;17189.94;;;-142.83;60.57
9129;BME280;4599;50.906;6.786;2023-04-19T07:02:05;17151.06;;;-142.83;60.02
9129;BME280;4599;50.906;6.786;2023-04-19T07:06:06;17202.22;;;-142.83;58.83
9129;BME280;4599;50.906;6.786;2023-04-19T07:10:08;17271.75;;;-142.83;57.66
9129;BME280;4599;50.906;6.786;2023-04-19T07:14:10;17310.63;;;-142.83;56.19
9129;BME280;4599;50.906;6.786;2023-04-19T07:18:15;17335.16;;;-142.83;53.79
9129;BME280;4599;50.906;6.786;2023-04-19T07:22:16;17689.03;;;-142.83;52.12
9129;BME280;4599;50.906;6.786;2023-04-19T07:26:18;17625.63;;;-142.83;47.88
9129;BME280;4599;50.906;6.786;2023-04-19T07:30:19;17629.72;;;-142.83;47.65
9129;BME280;4599;50.906;6.786;2023-04-19T07:34:22;17717.66;;;-142.83;46.59
9129;BME280;4599;50.906;6.786;2023-04-19T07:38:24;18122.72;;;-142.83;41.03
9129;BME280;4599;50.906;6.786;2023-04-19T07:42:25;18202.50;;;-142.83;40.89
9129;BME280;4599;50.906;6.786;2023-04-19T07:46:27;18190.22;;;-142.83;38.71
9129;BME280;4599;50.906;6.786;2023-04-19T07:50:30;18509.41;;;-142.83;37.38
9129;BME280;4599;50.906;6.786;2023-04-19T07:54:31;18468.47;;;-142.83;36.50
9129;BME280;4599;50.906;6.786;2023-04-19T07:58:33;18298.66;;;-142.83;37.50
9129;BME280;4599;50.906;6.786;2023-04-19T08:02:35;18431.66;;;-142.83;36.73
9129;BME280;4599;50.906;6.786;2023-04-19T08:06:38;18517.59;;;-142.83;35.56
9129;BME280;4599;50.906;6.786;2023-04-19T08:10:39;18435.75;;;-142.83;35.88
9129;BME280;4599;50.906;6.786;2023-04-19T08:14:41;18607.59;;;-142.83;34.80
9129;BME280;4599;50.906;6.786;2023-04-19T08:19:00;18754.94;;;-142.83;32.71
9129;BME280;4599;50.906;6.786;2023-04-19T08:23:03;18321.16;;;-142.83;35.07
9129;BME280;4599;50.906;6.786;2023-04-19T08:27:21;18515.53;;;-142.83;34.06
9129;BME280;4599;50.906;6.786;2023-04-19T08:31:22;18693.53;;;-142.83;33.70
9129;BME280;4599;50.906;6.786;2023-04-19T08:35:24;18759.03;;;-142.83;32.58
9129;BME280;4599;50.906;6.786;2023-04-19T08:39:27;18840.88;;;-142.83;32.25
9129;BME280;4599;50.906;6.786;2023-04-19T08:43:34;18949.31;;;-142.83;31.26
9129;BME280;4599;50.906;6.786;2023-04-19T08:47:38;18720.16;;;-142.83;32.12
9129;BME280;4599;50.906;6.786;2023-04-19T08:51:57;18877.69;;;-142.83;30.87
9129;BME280;4599;50.906;6.786;2023-04-19T08:56:01;19033.22;;;-142.83;30.29
9129;BME280;4599;50.906;6.786;2023-04-19T09:00:07;18742.66;;;-142.83;32.27
9129;BME280;4599;50.906;6.786;2023-04-19T09:04:08;18898.16;;;-142.83;30.83
9129;BME280;4599;50.906;6.786;2023-04-19T09:08:30;19117.13;;;-142.83;30.31
9129;BME280;4599;50.906;6.786;2023-04-19T09:12:33;19131.44;;;-142.83;29.45
9129;BME280;4599;50.906;6.786;2023-04-19T09:16:34;19141.66;;;-142.83;29.23
9129;BME280;4599;50.906;6.786;2023-04-19T09:20:37;19027.06;;;-142.83;28.90
9129;BME280;4599;50.906;6.786;2023-04-19T09:24:39;18714.00;;;-142.83;30.80
9129;BME280;4599;50.906;6.786;2023-04-19T09:28:54;19074.13;;;-142.83;29.24
9129;BME280;4599;50.906;6.786;2023-04-19T09:32:56;19184.66;;;-142.83;28.17
9129;BME280;4599;50.906;6.786;2023-04-19T09:37:10;19168.28;;;-142.83;27.73
9129;BME280;4599;50.906;6.786;2023-04-19T09:41:28;19352.44;;;-142.83;27.07
9129;BME280;4599;50.906;6.786;2023-04-19T09:45:42;19211.25;;;-142.83;27.78
9129;BME280;4599;50.906;6.786;2023-04-19T09:49:44;19280.81;;;-142.83;27.31
9129;BME280;4599;50.906;6.786;2023-04-19T09:53:50;19266.50;;;-142.83;26.78
9129;BME280;4599;50.906;6.786;2023-04-19T09:57:52;19293.09;;;-142.83;28.37
9129;BME280;4599;50.906;6.786;2023-04-19T10:01:55;19016.84;;;-142.83;28.06
9129;BME280;4599;50.906;6.786;2023-04-19T10:05:57;19162.13;;;-142.83;27.49
9129;BME280;4599;50.906;6.786;2023-04-19T10:10:10;19213.28;;;-142.83;27.55
9129;BME280;4599;50.906;6.786;2023-04-19T10:14:22;19217.38;;;-142.83;27.71
9129;BME280;4599;50.906;6.786;2023-04-19T10:18:26;19196.91;;;-142.83;27.13
9129;BME280;4599;50.906;6.786;2023-04-19T10:22:27;19303.34;;;-142.83;26.50
9129;BME280;4599;50.906;6.786;2023-04-19T10:26:29;19407.72;;;-142.83;26.15
9129;BME280;4599;50.906;6.786;2023-04-19T10:30:30;19086.41;;;-142.83;27.10
9129;BME280;4599;50.906;6.786;2023-04-19T10:34:39;19047.53;;;-142.83;27.59
9129;BME280;4599;50.906;6.786;2023-04-19T10:38:42;19160.09;;;-142.83;26.97
9129;BME280;4599;50.906;6.786;2023-04-19T10:43:14;19419.97;;;-142.83;26.07
9129;BME280;4599;50.906;6.786;2023-04-19T10:47:39;19321.75;;;-142.83;26.27
9129;BME280;4599;50.906;6.786;2023-04-19T10:51:48;19299.25;;;-142.83;26.33
9129;BME280;4599;50.906;6.786;2023-04-19T10:55:50;19364.72;;;-142.83;26.03
9129;BME280;4599;50.906;6.786;2023-04-19T11:00:18;19565.28;;;-142.83;25.03
9129;BME280;4599;50.906;6.786;2023-04-19T11:04:22;19426.13;;;-142.83;26.01
9129;BME280;4599;50.906;6.786;2023-04-19T11:08:25;19289.00;;;-142.83;26.28
9129;BME280;4599;50.906;6.786;2023-04-19T11:12:26;19319.72;;;-142.83;25.96
9129;BME280;4599;50.906;6.786;2023-04-19T11:16:28;19340.16;;;-142.83;26.01
9129;BME280;4599;50.906;6.786;2023-04-19T11:20:51;19338.13;;;-142.83;25.89
9129;BME280;4599;50.906;6.786;2023-04-19T11:24:55;19291.06;;;-142.83;26.86
9129;BME280;4599;50.906;6.786;2023-04-19T11:28:57;19252.19;;;-142.83;25.91
9129;BME280;4599;50.906;6.786;2023-04-19T11:32:58;19201.00;;;-142.83;25.85
9129;BME280;4599;50.906;6.786;2023-04-19T11:37:00;19239.91;;;-142.83;26.13
9129;BME280;4599;50.906;6.786;2023-04-19T11:41:03;19156.00;;;-142.83;26.06
9129;BME280;4599;50.906;6.786;2023-04-19T11:45:05;19082.31;;;-142.83;25.98
9129;BME280;4599;50.906;6.786;2023-04-19T11:49:24;19266.50;;;-142.83;26.16
9129;BME280;4599;50.906;6.786;2023-04-19T11:53:27;19291.06;;;-142.83;25.74
9129;BME280;4599;50.906;6.786;2023-04-19T11:57:30;19323.81;;;-142.83;25.17
9129;BME280;4599;50.906;6.786;2023-04-19T12:01:31;19350.41;;;-142.83;25.09
9129;BME280;4599;50.906;6.786;2023-04-19T12:05:32;19364.72;;;-142.83;25.70
9129;BME280;4599;50.906;6.786;2023-04-19T12:09:35;19219.44;;;-142.83;25.25
9129;BME280;4599;50.906;6.786;2023-04-19T12:13:38;19385.19;;;-142.83;23.96
9129;BME280;4599;50.906;6.786;2023-04-19T12:17:55;19254.22;;;-142.83;24.63
9129;BME280;4599;50.906;6.786;2023-04-19T12:22:06;19239.91;;;-142.83;24.62
9129;BME280;4599;50.906;6.786;2023-04-19T12:26:08;19004.56;;;-142.83;25.42
9129;BME280;4599;50.906;6.786;2023-04-19T12:30:12;19012.75;;;-142.83;25.55
9129;BME280;4599;50.906;6.786;2023-04-19T12:34:13;18967.72;;;-142.83;25.74
9129;BME280;4599;50.906;6.786;2023-04-19T12:38:15;19033.22;;;-142.83;25.62
9129;BME280;4599;50.906;6.786;2023-04-19T12:42:16;18918.63;;;-142.83;25.68
9129;BME280;4599;50.906;6.786;2023-04-19T12:46:19;19008.66;;;-142.83;25.63
9129;BME280;4599;50.906;6.786;2023-04-19T12:50:21;18969.78;;;-142.83;25.54
9129;BME280;4599;50.906;6.786;2023-04-19T12:54:22;18965.69;;;-142.83;25.57
9129;BME280;4599;50.906;6.786;2023-04-19T12:58:24;18988.19;;;-142.83;25.17
9129;BME280;4599;50.906;6.786;2023-04-19T13:02:27;18914.53;;;-142.83;26.13
9129;BME280;4599;50.906;6.786;2023-04-19T13:06:29;18898.16;;;-142.83;25.02
9129;BME280;4599;50.906;6.786;2023-04-19T13:10:30;18945.22;;;-142.83;24.50
9129;BME280;4599;50.906;6.786;2023-04-19T13:14:32;18971.81;;;-142.83;24.11
9129;BME280;4599;50.906;6.786;2023-04-19T13:18:35;18996.38;;;-142.83;24.24
9129;BME280;4599;50.906;6.786;2023-04-19T13:22:36;18849.06;;;-142.83;25.00
9129;BME280;4599;50.906;6.786;2023-04-19T13:26:38;19033.22;;;-142.83;24.45
9129;BME280;4599;50.906;6.786;2023-04-19T13:30:39;18930.91;;;-142.83;24.38
9129;BME280;4599;50.906;6.786;2023-04-19T13:34:42;18892.03;;;-142.83;23.73
9129;BME280;4599;50.906;6.786;2023-04-19T13:38:44;18935.00;;;-142.83;24.11
9129;BME280;4599;50.906;6.786;2023-04-19T13:42:45;18844.97;;;-142.83;24.26
9129;BME280;4599;50.906;6.786;2023-04-19T13:46:47;18773.34;;;-142.83;24.48
9129;BME280;4599;50.906;6.786;2023-04-19T13:50:50;18761.06;;;-142.83;24.11
9129;BME280;4599;50.906;6.786;2023-04-19T13:54:52;18720.16;;;-142.83;24.58
9129;BME280;4599;50.906;6.786;2023-04-19T13:58:53;18718.09;;;-142.83;24.78
9129;BME280;4599;50.906;6.786;2023-04-19T14:02:55;18718.09;;;-142.83;24.70
9129;BME280;4599;50.906;6.786;2023-04-19T14:06:58;18767.19;;;-142.83;24.71
9129;BME280;4599;50.906;6.786;2023-04-19T14:10:59;18738.56;;;-142.83;24.03
9129;BME280;4599;50.906;6.786;2023-04-19T14:15:01;18705.81;;;-142.83;23.86
9129;BME280;4599;50.906;6.786;2023-04-19T14:19:02;18666.94;;;-142.83;23.96
9129;BME280;4599;50.906;6.786;2023-04-19T14:23:05;18607.59;;;-142.83;24.28
9129;BME280;4599;50.906;6.786;2023-04-19T14:27:07;18615.78;;;-142.83;23.66
9129;BME280;4599;50.906;6.786;2023-04-19T14:31:12;18550.31;;;-142.83;24.08
9129;BME280;4599;50.906;6.786;2023-04-19T14:35:13;18595.34;;;-142.83;24.10
9129;BME280;4599;50.906;6.786;2023-04-19T14:39:16;18511.44;;;-142.83;24.17
9129;BME280;4599;50.906;6.786;2023-04-19T14:43:18;18513.50;;;-142.83;25.37
9129;BME280;4599;50.906;6.786;2023-04-19T14:47:20;18472.56;;;-142.83;25.22
9129;BME280;4599;50.906;6.786;2023-04-19T14:51:22;18431.66;;;-142.83;26.06
9129;BME280;4599;50.906;6.786;2023-04-19T14:55:24;18439.84;;;-142.83;25.48
9129;BME280;4599;50.906;6.786;2023-04-19T14:59:26;18423.47;;;-142.83;25.53
9129;BME280;4599;50.906;6.786;2023-04-19T15:03:30;18345.72;;;-142.83;25.79
9129;BME280;4599;50.906;6.786;2023-04-19T15:07:32;18300.72;;;-142.83;25.91
9129;BME280;4599;50.906;6.786;2023-04-19T15:11:35;18319.13;;;-142.83;25.25
9129;BME280;4599;50.906;6.786;2023-04-19T15:15:36;18302.75;;;-142.83;25.39
9129;BME280;4599;50.906;6.786;2023-04-19T15:19:38;18308.88;;;-142.83;25.94
9129;BME280;4599;50.906;6.786;2023-04-19T15:23:40;18300.72;;;-142.83;25.96
9129;BME280;4599;50.906;6.786;2023-04-19T15:27:42;18267.97;;;-142.83;26.14
9129;BME280;4599;50.906;6.786;2023-04-19T15:31:44;18315.03;;;-142.83;25.69
9129;BME280;4599;50.906;6.786;2023-04-19T15:35:49;18280.25;;;-142.83;25.64
9129;BME280;4599;50.906;6.786;2023-04-19T15:39:51;18257.75;;;-142.83;26.49
9129;BME280;4599;50.906;6.786;2023-04-19T15:43:53;18280.25;;;-142.83;26.13
9129;BME280;4599;50.906;6.786;2023-04-19T15:47:55;18229.09;;;-142.83;26.38
9129;BME280;4599;50.906;6.786;2023-04-19T15:51:56;18204.56;;;-142.83;26.84
9129;BME280;4599;50.906;6.786;2023-04-19T15:55:58;18135.00;;;-142.83;27.39
9129;BME280;4599;50.906;6.786;2023-04-19T16:00:01;18194.31;;;-142.83;27.31
9129;BME280;4599;50.906;6.786;2023-04-19T16:04:02;18083.84;;;-142.83;27.60
9129;BME280;4599;50.906;6.786;2023-04-19T16:08:06;18145.22;;;-142.83;27.60
9129;BME280;4599;50.906;6.786;2023-04-19T16:12:07;18077.72;;;-142.83;27.96
9129;BME280;4599;50.906;6.786;2023-04-19T16:16:10;18026.56;;;-142.83;28.77
9129;BME280;4599;50.906;6.786;2023-04-19T16:20:12;18067.47;;;-142.83;27.95
9129;BME280;4599;50.906;6.786;2023-04-19T16:24:13;17993.84;;;-142.83;28.75
9129;BME280;4599;50.906;6.786;2023-04-19T16:28:15;18002.00;;;-142.83;29.17
9129;BME280;4599;50.906;6.786;2023-04-19T16:32:17;17969.28;;;-142.83;28.23
9129;BME280;4599;50.906;6.786;2023-04-19T16:36:19;17997.94;;;-142.83;28.44
9129;BME280;4599;50.906;6.786;2023-04-19T16:40:21;17971.31;;;-142.83;28.48
9129;BME280;4599;50.906;6.786;2023-04-19T16:44:23;17995.88;;;-142.83;28.01
9129;BME280;4599;50.906;6.786;2023-04-19T16:48:25;17959.06;;;-142.83;28.60
9129;BME280;4599;50.906;6.786;2023-04-19T16:52:29;17981.56;;;-142.83;28.44
9129;BME280;4599;50.906;6.786;2023-04-19T16:56:31;17987.69;;;-142.83;28.47
9129;BME280;4599;50.906;6.786;2023-04-19T17:00:34;17957.00;;;-142.83;29.07
9129;BME280;4599;50.906;6.786;2023-04-19T17:04:36;17965.19;;;-142.83;28.64
9129;BME280;4599;50.906;6.786;2023-04-19T17:08:38;17899.72;;;-142.83;29.30
9129;BME280;4599;50.906;6.786;2023-04-19T17:12:40;17912.00;;;-142.83;28.05
9129;BME280;4599;50.906;6.786;2023-04-19T17:16:42;17920.19;;;-142.83;29.09
9129;BME280;4599;50.906;6.786;2023-04-19T17:20:45;17922.22;;;-142.83;28.59
9129;BME280;4599;50.906;6.786;2023-04-19T17:24:46;17901.78;;;-142.83;29.03
9129;BME280;4599;50.906;6.786;2023-04-19T17:28:48;17893.59;;;-142.83;28.96
9129;BME280;4599;50.906;6.786;2023-04-19T17:32:49;17893.59;;;-142.83;28.87
9129;BME280;4599;50.906;6.786;2023-04-19T17:36:52;17850.63;;;-142.83;28.69
9129;BME280;4599;50.906;6.786;2023-04-19T17:40:54;17844.50;;;-142.83;28.49
9129;BME280;4599;50.906;6.786;2023-04-19T17:44:55;17834.25;;;-142.83;29.00
9129;BME280;4599;50.906;6.786;2023-04-19T17:48:57;17871.09;;;-142.83;28.16
9129;BME280;4599;50.906;6.786;2023-04-19T17:52:59;17912.00;;;-142.83;27.95
9129;BME280;4599;50.906;6.786;2023-04-19T17:57:01;17813.81;;;-142.83;27.97
9129;BME280;4599;50.906;6.786;2023-04-19T18:01:03;17822.00;;;-142.83;29.20
9129;BME280;4599;50.906;6.786;2023-04-19T18:05:05;17867.00;;;-142.83;28.45
9129;BME280;4599;50.906;6.786;2023-04-19T18:09:08;17854.72;;;-142.83;29.49
9129;BME280;4599;50.906;6.786;2023-04-19T18:13:09;17797.44;;;-142.83;29.69
9129;BME280;4599;50.906;6.786;2023-04-19T18:17:11;17781.09;;;-142.83;29.18
9129;BME280;4599;50.906;6.786;2023-04-19T18:21:12;17793.34;;;-142.83;29.64
9129;BME280;4599;50.906;6.786;2023-04-19T18:25:15;17736.06;;;-142.83;29.33
9129;BME280;4599;50.906;6.786;2023-04-19T18:29:16;17752.44;;;-142.83;30.48
9129;BME280;4599;50.906;6.786;2023-04-19T18:33:18;17731.97;;;-142.83;30.55
9129;BME280;4599;50.906;6.786;2023-04-19T18:37:20;17707.44;;;-142.83;31.14
9129;BME280;4599;50.906;6.786;2023-04-19T18:41:23;17707.44;;;-142.83;30.35
9129;BME280;4599;50.906;6.786;2023-04-19T18:45:24;17717.66;;;-142.83;30.24
9129;BME280;4599;50.906;6.786;2023-04-19T18:49:26;17678.81;;;-142.83;31.80
9129;BME280;4599;50.906;6.786;2023-04-19T18:53:28;17699.25;;;-142.83;30.46
9129;BME280;4599;50.906;6.786;2023-04-19T18:57:30;17678.81;;;-142.83;32.00
9129;BME280;4599;50.906;6.786;2023-04-19T19:01:35;17652.22;;;-142.83;30.94
9129;BME280;4599;50.906;6.786;2023-04-19T19:05:37;17650.16;;;-142.83;31.32
9129;BME280;4599;50.906;6.786;2023-04-19T19:09:38;17650.16;;;-142.83;31.80
9129;BME280;4599;50.906;6.786;2023-04-19T19:13:44;17666.53;;;-142.83;31.60
9129;BME280;4599;50.906;6.786;2023-04-19T19:17:46;17656.28;;;-142.83;31.58
9129;BME280;4599;50.906;6.786;2023-04-19T19:21:50;17658.34;;;-142.83;31.78
9129;BME280;4599;50.906;6.786;2023-04-19T19:25:52;17637.88;;;-142.83;32.37
9129;BME280;4599;50.906;6.786;2023-04-19T19:29:54;17615.38;;;-142.83;32.08
9129;BME280;4599;50.906;6.786;2023-04-19T19:33:56;17644.03;;;-142.83;32.54
9129;BME280;4599;50.906;6.786;2023-04-19T19:38:17;17637.88;;;-142.83;32.33
9129;BME280;4599;50.906;6.786;2023-04-19T19:42:19;17611.28;;;-142.83;33.22
9129;BME280;4599;50.906;6.786;2023-04-19T19:46:22;17607.22;;;-142.83;33.03
9129;BME280;4599;50.906;6.786;2023-04-19T19:50:23;17588.78;;;-142.83;34.11
9129;BME280;4599;50.906;6.786;2023-04-19T19:54:45;17588.78;;;-142.83;34.17
9129;BME280;4599;50.906;6.786;2023-04-19T19:58:46;17556.06;;;-142.83;34.28
9129;BME280;4599;50.906;6.786;2023-04-19T20:02:53;17582.66;;;-142.83;34.38
9129;BME280;4599;50.906;6.786;2023-04-19T20:06:57;17564.25;;;-142.83;34.75
9129;BME280;4599;50.906;6.786;2023-04-19T20:11:01;17549.94;;;-142.83;34.52
9129;BME280;4599;50.906;6.786;2023-04-19T20:15:04;17566.28;;;-142.83;34.89
9129;BME280;4599;50.906;6.786;2023-04-19T20:19:07;17539.69;;;-142.83;34.80
9129;BME280;4599;50.906;6.786;2023-04-19T20:23:08;17568.34;;;-142.83;34.92
9129;BME280;4599;50.906;6.786;2023-04-19T20:27:10;17560.16;;;-142.83;35.23
9129;BME280;4599;50.906;6.786;2023-04-19T20:31:11;17488.56;;;-142.83;35.28
9129;BME280;4599;50.906;6.786;2023-04-19T20:35:14;17492.66;;;-142.83;35.49
9129;BME280;4599;50.906;6.786;2023-04-19T20:39:16;17554.03;;;-142.83;34.21
9129;BME280;4599;50.906;6.786;2023-04-19T20:43:17;17527.44;;;-142.83;35.00
9129;BME280;4599;50.906;6.786;2023-04-19T20:47:19;17476.28;;;-142.83;35.74
9129;BME280;4599;50.906;6.786;2023-04-19T20:51:23;17541.75;;;-142.83;35.18
9129;BME280;4599;50.906;6.786;2023-04-19T20:55:24;17478.34;;;-142.83;35.43
9129;BME280;4599;50.906;6.786;2023-04-19T20:59:26;17457.88;;;-142.83;36.45
9129;BME280;4599;50.906;6.786;2023-04-19T21:03:27;17445.59;;;-142.83;36.67
9129;BME280;4599;50.906;6.786;2023-04-19T21:07:30;17464.03;;;-142.83;36.03
9129;BME280;4599;50.906;6.786;2023-04-19T21:11:32;17449.69;;;-142.83;36.88
9129;BME280;4599;50.906;6.786;2023-04-19T21:15:33;17423.09;;;-142.83;36.51
9129;BME280;4599;50.906;6.786;2023-04-19T21:19:35;17441.53;;;-142.83;37.51
9129;BME280;4599;50.906;6.786;2023-04-19T21:23:38;17408.78;;;-142.83;37.51
9129;BME280;4599;50.906;6.786;2023-04-19T21:27:40;17416.97;;;-142.83;37.29